sensor_id;sensor_type;location;lat;lon;timestamp;P1;durP1;ratioP1;P2;durP2;ratioP2
11490;SDS011;5802;52.832;4.758;2023-08-17T00:01:31;1.50;;;0.98;;
11490;SDS011;5802;52.832;4.758;2023-08-17T00:03:57;1.92;;;1.15;;
11490;SDS011;5802;52.832;4.758;2023-08-17T00:06:24;2.13;;;1.10;;
11490;SDS011;5802;52.832;4.758;2023-08-17T00:08:51;1.20;;;1.10;;
11490;SDS011;5802;52.832;4.758;2023-08-17T00:11:17;1.45;;;1.15;;
11490;SDS011;5802;52.832;4.758;2023-08-17T00:13:44;1.17;;;0.90;;
11490;SDS011;5802;52.832;4.758;2023-08-17T00:16:12;1.52;;;1.13;;
11490;SDS011;5802;52.832;4.758;2023-08-17T00:18:39;1.25;;;0.90;;
11490;SDS011;5802;52.832;4.758;2023-08-17T00:21:05;1.95;;;1.23;;
11490;SDS011;5802;52.832;4.758;2023-08-17T00:23:32;1.52;;;1.20;;
11490;SDS011;5802;52.832;4.758;2023-08-17T00:25:59;1.52;;;1.10;;
11490;SDS011;5802;52.832;4.758;2023-08-17T00:28:26;1.65;;;1.15;;
11490;SDS011;5802;52.832;4.758;2023-08-17T00:30:53;1.90;;;1.00;;
11490;SDS011;5802;52.832;4.758;2023-08-17T00:33:21;1.52;;;1.20;;
11490;SDS011;5802;52.832;4.758;2023-08-17T00:35:47;2.97;;;1.00;;
11490;SDS011;5802;52.832;4.758;2023-08-17T00:38:14;1.77;;;1.20;;
11490;SDS011;5802;52.832;4.758;2023-08-17T00:40:41;1.73;;;1.05;;
11490;SDS011;5802;52.832;4.758;2023-08-17T00:43:08;2.13;;;1.17;;
11490;SDS011;5802;52.832;4.758;2023-08-17T00:45:35;3.13;;;1.13;;
11490;SDS011;5802;52.832;4.758;2023-08-17T00:48:02;1.23;;;0.77;;
11490;SDS011;5802;52.832;4.758;2023-08-17T00:50:34;0.95;;;0.88;;
11490;SDS011;5802;52.832;4.758;2023-08-17T00:53:02;1.13;;;0.90;;
11490;SDS011;5802;52.832;4.758;2023-08-17T00:55:30;0.90;;;0.80;;
11490;SDS011;5802;52.832;4.758;2023-08-17T00:57:57;0.82;;;0.65;;
11490;SDS011;5802;52.832;4.758;2023-08-17T01:00:24;0.90;;;0.90;;
11490;SDS011;5802;52.832;4.758;2023-08-17T01:02:52;3.20;;;1.02;;
11490;SDS011;5802;52.832;4.758;2023-08-17T01:05:19;1.13;;;0.90;;
11490;SDS011;5802;52.832;4.758;2023-08-17T01:07:48;3.30;;;1.10;;
11490;SDS011;5802;52.832;4.758;2023-08-17T01:10:14;1.00;;;0.90;;
11490;SDS011;5802;52.832;4.758;2023-08-17T01:12:42;2.35;;;1.10;;
11490;SDS011;5802;52.832;4.758;2023-08-17T01:15:14;1.45;;;1.05;;
11490;SDS011;5802;52.832;4.758;2023-08-17T01:17:45;1.10;;;1.00;;
11490;SDS011;5802;52.832;4.758;2023-08-17T01:20:19;1.58;;;1.10;;
11490;SDS011;5802;52.832;4.758;2023-08-17T01:22:49;1.20;;;0.90;;
11490;SDS011;5802;52.832;4.758;2023-08-17T01:25:20;1.15;;;1.00;;
11490;SDS011;5802;52.832;4.758;2023-08-17T01:27:46;1.60;;;0.95;;
11490;SDS011;5802;52.832;4.758;2023-08-17T01:30:13;1.65;;;1.10;;
11490;SDS011;5802;52.832;4.758;2023-08-17T01:32:44;0.90;;;0.88;;
11490;SDS011;5802;52.832;4.758;2023-08-17T01:35:16;1.05;;;0.85;;
11490;SDS011;5802;52.832;4.758;2023-08-17T01:37:49;1.25;;;0.90;;
11490;SDS011;5802;52.832;4.758;2023-08-17T01:40:20;1.40;;;0.95;;
11490;SDS011;5802;52.832;4.758;2023-08-17T01:42:48;2.03;;;0.98;;
11490;SDS011;5802;52.832;4.758;2023-08-17T01:45:16;1.40;;;1.00;;
11490;SDS011;5802;52.832;4.758;2023-08-17T01:47:43;2.15;;;1.10;;
11490;SDS011;5802;52.832;4.758;2023-08-17T01:50:10;1.00;;;0.80;;
11490;SDS011;5802;52.832;4.758;2023-08-17T01:52:37;0.90;;;0.75;;
11490;SDS011;5802;52.832;4.758;2023-08-17T01:55:04;1.27;;;0.90;;
11490;SDS011;5802;52.832;4.758;2023-08-17T01:57:32;1.05;;;0.85;;
11490;SDS011;5802;52.832;4.758;2023-08-17T02:00:00;1.55;;;1.10;;
11490;SDS011;5802;52.832;4.758;2023-08-17T02:02:28;1.25;;;0.90;;
11490;SDS011;5802;52.832;4.758;2023-08-17T02:04:54;2.28;;;1.00;;
11490;SDS011;5802;52.832;4.758;2023-08-17T02:07:21;1.35;;;0.90;;
11490;SDS011;5802;52.832;4.758;2023-08-17T02:09:48;1.50;;;0.90;;
11490;SDS011;5802;52.832;4.758;2023-08-17T02:12:15;1.00;;;0.88;;
11490;SDS011;5802;52.832;4.758;2023-08-17T02:14:43;1.42;;;0.90;;
11490;SDS011;5802;52.832;4.758;2023-08-17T02:17:09;1.10;;;0.80;;
11490;SDS011;5802;52.832;4.758;2023-08-17T02:19:36;1.88;;;0.95;;
11490;SDS011;5802;52.832;4.758;2023-08-17T02:22:03;1.38;;;0.82;;
11490;SDS011;5802;52.832;4.758;2023-08-17T02:24:31;1.02;;;0.90;;
11490;SDS011;5802;52.832;4.758;2023-08-17T02:26:57;1.00;;;0.80;;
11490;SDS011;5802;52.832;4.758;2023-08-17T02:29:24;0.75;;;0.65;;
11490;SDS011;5802;52.832;4.758;2023-08-17T02:31:52;1.10;;;0.93;;
11490;SDS011;5802;52.832;4.758;2023-08-17T02:34:18;1.15;;;0.90;;
11490;SDS011;5802;52.832;4.758;2023-08-17T02:36:45;1.10;;;0.88;;
11490;SDS011;5802;52.832;4.758;2023-08-17T02:39:12;4.05;;;1.08;;
11490;SDS011;5802;52.832;4.758;2023-08-17T02:41:39;1.52;;;1.17;;
11490;SDS011;5802;52.832;4.758;2023-08-17T02:44:06;1.65;;;0.90;;
11490;SDS011;5802;52.832;4.758;2023-08-17T02:46:33;2.33;;;0.93;;
11490;SDS011;5802;52.832;4.758;2023-08-17T02:49:01;1.27;;;0.95;;
11490;SDS011;5802;52.832;4.758;2023-08-17T02:51:28;1.20;;;0.90;;
11490;SDS011;5802;52.832;4.758;2023-08-17T02:53:54;2.08;;;1.00;;
11490;SDS011;5802;52.832;4.758;2023-08-17T02:56:21;1.77;;;1.00;;
11490;SDS011;5802;52.832;4.758;2023-08-17T02:58:48;0.90;;;0.80;;
11490;SDS011;5802;52.832;4.758;2023-08-17T03:01:14;1.00;;;0.90;;
11490;SDS011;5802;52.832;4.758;2023-08-17T03:03:41;0.80;;;0.80;;
11490;SDS011;5802;52.832;4.758;2023-08-17T03:06:09;1.20;;;0.90;;
11490;SDS011;5802;52.832;4.758;2023-08-17T03:08:36;0.95;;;0.82;;
11490;SDS011;5802;52.832;4.758;2023-08-17T03:11:02;1.30;;;1.00;;
11490;SDS011;5802;52.832;4.758;2023-08-17T03:13:32;1.20;;;0.90;;
11490;SDS011;5802;52.832;4.758;2023-08-17T03:15:58;0.90;;;0.60;;
11490;SDS011;5802;52.832;4.758;2023-08-17T03:18:25;1.58;;;1.10;;
11490;SDS011;5802;52.832;4.758;2023-08-17T03:20:52;1.83;;;0.80;;
11490;SDS011;5802;52.832;4.758;2023-08-17T03:23:20;1.08;;;0.98;;
11490;SDS011;5802;52.832;4.758;2023-08-17T03:25:50;1.05;;;0.77;;
11490;SDS011;5802;52.832;4.758;2023-08-17T03:28:17;1.40;;;0.98;;
11490;SDS011;5802;52.832;4.758;2023-08-17T03:30:44;1.08;;;0.80;;
11490;SDS011;5802;52.832;4.758;2023-08-17T03:33:11;1.38;;;0.98;;
11490;SDS011;5802;52.832;4.758;2023-08-17T03:35:37;1.98;;;1.08;;
11490;SDS011;5802;52.832;4.758;2023-08-17T03:38:04;1.10;;;0.85;;
11490;SDS011;5802;52.832;4.758;2023-08-17T03:40:32;2.10;;;0.98;;
11490;SDS011;5802;52.832;4.758;2023-08-17T03:42:59;1.23;;;0.95;;
11490;SDS011;5802;52.832;4.758;2023-08-17T03:45:25;1.33;;;0.90;;
11490;SDS011;5802;52.832;4.758;2023-08-17T03:47:52;1.35;;;0.85;;
11490;SDS011;5802;52.832;4.758;2023-08-17T03:50:18;1.17;;;0.80;;
11490;SDS011;5802;52.832;4.758;2023-08-17T03:52:45;0.80;;;0.70;;
11490;SDS011;5802;52.832;4.758;2023-08-17T03:55:12;1.33;;;0.90;;
11490;SDS011;5802;52.832;4.758;2023-08-17T03:57:40;1.67;;;0.90;;
11490;SDS011;5802;52.832;4.758;2023-08-17T04:00:07;1.77;;;0.93;;
11490;SDS011;5802;52.832;4.758;2023-08-17T04:02:35;2.97;;;1.02;;
11490;SDS011;5802;52.832;4.758;2023-08-17T04:05:03;1.23;;;0.90;;
11490;SDS011;5802;52.832;4.758;2023-08-17T04:07:30;1.10;;;0.80;;
11490;SDS011;5802;52.832;4.758;2023-08-17T04:09:56;1.00;;;0.85;;
11490;SDS011;5802;52.832;4.758;2023-08-17T04:12:23;1.30;;;1.05;;
11490;SDS011;5802;52.832;4.758;2023-08-17T04:14:51;1.45;;;0.90;;
11490;SDS011;5802;52.832;4.758;2023-08-17T04:17:17;2.17;;;1.00;;
11490;SDS011;5802;52.832;4.758;2023-08-17T04:19:45;3.47;;;0.90;;
11490;SDS011;5802;52.832;4.758;2023-08-17T04:22:12;1.20;;;0.85;;
11490;SDS011;5802;52.832;4.758;2023-08-17T04:24:39;1.27;;;0.90;;
11490;SDS011;5802;52.832;4.758;2023-08-17T04:27:05;0.82;;;0.80;;
11490;SDS011;5802;52.832;4.758;2023-08-17T04:29:32;0.80;;;0.80;;
11490;SDS011;5802;52.832;4.758;2023-08-17T04:32:00;1.40;;;0.85;;
11490;SDS011;5802;52.832;4.758;2023-08-17T04:34:27;1.02;;;0.90;;
11490;SDS011;5802;52.832;4.758;2023-08-17T04:36:53;1.00;;;0.90;;
11490;SDS011;5802;52.832;4.758;2023-08-17T04:39:20;1.10;;;0.80;;
11490;SDS011;5802;52.832;4.758;2023-08-17T04:41:47;1.27;;;1.00;;
11490;SDS011;5802;52.832;4.758;2023-08-17T04:44:14;1.63;;;0.98;;
11490;SDS011;5802;52.832;4.758;2023-08-17T04:46:40;1.48;;;0.75;;
11490;SDS011;5802;52.832;4.758;2023-08-17T04:49:08;0.95;;;0.77;;
11490;SDS011;5802;52.832;4.758;2023-08-17T04:51:35;0.80;;;0.70;;
11490;SDS011;5802;52.832;4.758;2023-08-17T04:54:01;2.10;;;0.77;;
11490;SDS011;5802;52.832;4.758;2023-08-17T04:56:28;1.33;;;1.00;;
11490;SDS011;5802;52.832;4.758;2023-08-17T04:58:55;1.63;;;1.00;;
11490;SDS011;5802;52.832;4.758;2023-08-17T05:01:22;1.73;;;0.90;;
11490;SDS011;5802;52.832;4.758;2023-08-17T05:03:49;1.33;;;0.68;;
11490;SDS011;5802;52.832;4.758;2023-08-17T05:06:18;1.45;;;0.95;;
11490;SDS011;5802;52.832;4.758;2023-08-17T05:08:44;0.95;;;0.75;;
11490;SDS011;5802;52.832;4.758;2023-08-17T05:11:11;1.63;;;0.90;;
11490;SDS011;5802;52.832;4.758;2023-08-17T05:13:38;1.60;;;1.00;;
11490;SDS011;5802;52.832;4.758;2023-08-17T05:16:04;1.02;;;0.93;;
11490;SDS011;5802;52.832;4.758;2023-08-17T05:18:31;1.83;;;1.00;;
11490;SDS011;5802;52.832;4.758;2023-08-17T05:20:58;0.90;;;0.80;;
11490;SDS011;5802;52.832;4.758;2023-08-17T05:23:26;0.77;;;0.63;;
11490;SDS011;5802;52.832;4.758;2023-08-17T05:25:53;1.00;;;0.80;;
11490;SDS011;5802;52.832;4.758;2023-08-17T05:28:20;0.93;;;0.68;;
11490;SDS011;5802;52.832;4.758;2023-08-17T05:30:46;0.70;;;0.70;;
11490;SDS011;5802;52.832;4.758;2023-08-17T05:33:14;1.63;;;0.98;;
11490;SDS011;5802;52.832;4.758;2023-08-17T05:35:41;1.08;;;0.80;;
11490;SDS011;5802;52.832;4.758;2023-08-17T05:38:09;1.30;;;0.93;;
11490;SDS011;5802;52.832;4.758;2023-08-17T05:40:37;1.35;;;0.80;;
11490;SDS011;5802;52.832;4.758;2023-08-17T05:43:07;1.30;;;0.80;;
11490;SDS011;5802;52.832;4.758;2023-08-17T05:45:33;1.38;;;0.80;;
11490;SDS011;5802;52.832;4.758;2023-08-17T05:48:02;1.17;;;1.00;;
11490;SDS011;5802;52.832;4.758;2023-08-17T05:50:29;1.33;;;0.90;;
11490;SDS011;5802;52.832;4.758;2023-08-17T05:52:55;1.13;;;0.60;;
11490;SDS011;5802;52.832;4.758;2023-08-17T05:55:22;0.95;;;0.80;;
11490;SDS011;5802;52.832;4.758;2023-08-17T05:57:50;1.45;;;0.98;;
11490;SDS011;5802;52.832;4.758;2023-08-17T06:00:17;1.92;;;1.10;;
11490;SDS011;5802;52.832;4.758;2023-08-17T06:02:43;1.15;;;0.90;;
11490;SDS011;5802;52.832;4.758;2023-08-17T06:05:14;0.80;;;0.68;;
11490;SDS011;5802;52.832;4.758;2023-08-17T06:07:41;3.53;;;0.90;;
11490;SDS011;5802;52.832;4.758;2023-08-17T06:10:08;1.00;;;0.90;;
11490;SDS011;5802;52.832;4.758;2023-08-17T06:12:36;1.38;;;0.80;;
11490;SDS011;5802;52.832;4.758;2023-08-17T06:15:05;2.90;;;1.00;;
11490;SDS011;5802;52.832;4.758;2023-08-17T06:17:32;1.35;;;0.80;;
11490;SDS011;5802;52.832;4.758;2023-08-17T06:19:59;4.32;;;1.10;;
11490;SDS011;5802;52.832;4.758;2023-08-17T06:22:25;1.30;;;0.93;;
11490;SDS011;5802;52.832;4.758;2023-08-17T06:24:52;1.85;;;1.00;;
11490;SDS011;5802;52.832;4.758;2023-08-17T06:27:19;1.63;;;1.13;;
11490;SDS011;5802;52.832;4.758;2023-08-17T06:29:45;1.10;;;1.00;;
11490;SDS011;5802;52.832;4.758;2023-08-17T06:32:13;1.92;;;0.82;;
11490;SDS011;5802;52.832;4.758;2023-08-17T06:34:40;1.83;;;1.10;;
11490;SDS011;5802;52.832;4.758;2023-08-17T06:37:07;0.82;;;0.75;;
11490;SDS011;5802;52.832;4.758;2023-08-17T06:39:34;2.17;;;0.90;;
11490;SDS011;5802;52.832;4.758;2023-08-17T06:42:01;1.10;;;0.90;;
11490;SDS011;5802;52.832;4.758;2023-08-17T06:44:27;2.35;;;0.90;;
11490;SDS011;5802;52.832;4.758;2023-08-17T06:46:55;1.35;;;0.90;;
11490;SDS011;5802;52.832;4.758;2023-08-17T06:49:24;1.23;;;0.90;;
11490;SDS011;5802;52.832;4.758;2023-08-17T06:51:52;1.92;;;0.80;;
11490;SDS011;5802;52.832;4.758;2023-08-17T06:54:19;1.20;;;0.90;;
11490;SDS011;5802;52.832;4.758;2023-08-17T06:56:45;2.60;;;1.10;;
11490;SDS011;5802;52.832;4.758;2023-08-17T06:59:12;1.00;;;0.80;;
11490;SDS011;5802;52.832;4.758;2023-08-17T07:01:39;1.52;;;0.77;;
11490;SDS011;5802;52.832;4.758;2023-08-17T07:04:05;0.88;;;0.73;;
11490;SDS011;5802;52.832;4.758;2023-08-17T07:06:34;1.70;;;0.90;;
11490;SDS011;5802;52.832;4.758;2023-08-17T07:09:00;0.95;;;0.70;;
11490;SDS011;5802;52.832;4.758;2023-08-17T07:11:30;1.10;;;0.80;;
11490;SDS011;5802;52.832;4.758;2023-08-17T07:13:56;1.73;;;0.82;;
11490;SDS011;5802;52.832;4.758;2023-08-17T07:16:23;2.00;;;0.80;;
11490;SDS011;5802;52.832;4.758;2023-08-17T07:18:50;1.30;;;0.95;;
11490;SDS011;5802;52.832;4.758;2023-08-17T07:21:16;2.70;;;1.10;;
11490;SDS011;5802;52.832;4.758;2023-08-17T07:23:45;1.23;;;1.00;;
11490;SDS011;5802;52.832;4.758;2023-08-17T07:26:12;2.88;;;0.90;;
11490;SDS011;5802;52.832;4.758;2023-08-17T07:28:38;1.48;;;0.90;;
11490;SDS011;5802;52.832;4.758;2023-08-17T07:31:05;1.48;;;1.00;;
11490;SDS011;5802;52.832;4.758;2023-08-17T07:33:32;1.80;;;0.95;;
11490;SDS011;5802;52.832;4.758;2023-08-17T07:35:58;1.92;;;0.73;;
11490;SDS011;5802;52.832;4.758;2023-08-17T07:38:25;3.00;;;0.80;;
11490;SDS011;5802;52.832;4.758;2023-08-17T07:40:54;1.45;;;1.10;;
11490;SDS011;5802;52.832;4.758;2023-08-17T07:43:20;2.60;;;0.90;;
11490;SDS011;5802;52.832;4.758;2023-08-17T07:45:52;1.08;;;0.80;;
11490;SDS011;5802;52.832;4.758;2023-08-17T07:48:19;1.35;;;0.80;;
11490;SDS011;5802;52.832;4.758;2023-08-17T07:50:47;1.35;;;0.90;;
11490;SDS011;5802;52.832;4.758;2023-08-17T07:53:15;2.00;;;1.05;;
11490;SDS011;5802;52.832;4.758;2023-08-17T07:55:41;1.58;;;1.00;;
11490;SDS011;5802;52.832;4.758;2023-08-17T07:58:09;1.30;;;1.05;;
11490;SDS011;5802;52.832;4.758;2023-08-17T08:00:36;1.27;;;0.82;;
11490;SDS011;5802;52.832;4.758;2023-08-17T08:03:03;2.17;;;1.00;;
11490;SDS011;5802;52.832;4.758;2023-08-17T08:05:30;2.05;;;0.90;;
11490;SDS011;5802;52.832;4.758;2023-08-17T08:07:57;1.35;;;0.80;;
11490;SDS011;5802;52.832;4.758;2023-08-17T08:10:24;1.08;;;0.90;;
11490;SDS011;5802;52.832;4.758;2023-08-17T08:12:50;1.75;;;1.17;;
11490;SDS011;5802;52.832;4.758;2023-08-17T08:15:18;3.25;;;1.10;;
11490;SDS011;5802;52.832;4.758;2023-08-17T08:17:45;2.95;;;1.10;;
11490;SDS011;5802;52.832;4.758;2023-08-17T08:20:12;0.93;;;0.73;;
11490;SDS011;5802;52.832;4.758;2023-08-17T08:22:39;7.10;;;1.10;;
11490;SDS011;5802;52.832;4.758;2023-08-17T08:25:05;6.68;;;1.42;;
11490;SDS011;5802;52.832;4.758;2023-08-17T08:27:32;1.63;;;1.10;;
11490;SDS011;5802;52.832;4.758;2023-08-17T08:29:59;4.13;;;1.13;;
11490;SDS011;5802;52.832;4.758;2023-08-17T08:32:27;2.65;;;1.20;;
11490;SDS011;5802;52.832;4.758;2023-08-17T08:34:54;4.30;;;0.98;;
11490;SDS011;5802;52.832;4.758;2023-08-17T08:37:20;3.80;;;0.80;;
11490;SDS011;5802;52.832;4.758;2023-08-17T08:39:47;1.83;;;0.88;;
11490;SDS011;5802;52.832;4.758;2023-08-17T08:42:14;2.65;;;1.02;;
11490;SDS011;5802;52.832;4.758;2023-08-17T08:44:41;2.42;;;1.10;;
11490;SDS011;5802;52.832;4.758;2023-08-17T08:47:08;3.47;;;1.02;;
11490;SDS011;5802;52.832;4.758;2023-08-17T08:49:37;1.40;;;1.00;;
11490;SDS011;5802;52.832;4.758;2023-08-17T08:52:06;1.77;;;0.90;;
11490;SDS011;5802;52.832;4.758;2023-08-17T08:54:34;3.88;;;1.02;;
11490;SDS011;5802;52.832;4.758;2023-08-17T08:57:06;2.00;;;1.10;;
11490;SDS011;5802;52.832;4.758;2023-08-17T08:59:38;1.60;;;0.88;;
11490;SDS011;5802;52.832;4.758;2023-08-17T09:02:10;1.98;;;0.90;;
11490;SDS011;5802;52.832;4.758;2023-08-17T09:04:41;1.80;;;0.75;;
11490;SDS011;5802;52.832;4.758;2023-08-17T09:07:09;1.25;;;0.77;;
11490;SDS011;5802;52.832;4.758;2023-08-17T09:09:37;1.70;;;1.05;;
11490;SDS011;5802;52.832;4.758;2023-08-17T09:12:05;1.58;;;0.90;;
11490;SDS011;5802;52.832;4.758;2023-08-17T09:14:34;1.77;;;0.85;;
11490;SDS011;5802;52.832;4.758;2023-08-17T09:17:02;1.15;;;0.93;;
11490;SDS011;5802;52.832;4.758;2023-08-17T09:19:30;2.08;;;0.95;;
11490;SDS011;5802;52.832;4.758;2023-08-17T09:21:59;1.70;;;0.95;;
11490;SDS011;5802;52.832;4.758;2023-08-17T09:24:33;1.85;;;0.98;;
11490;SDS011;5802;52.832;4.758;2023-08-17T09:27:00;2.60;;;1.10;;
11490;SDS011;5802;52.832;4.758;2023-08-17T09:29:27;1.40;;;0.80;;
11490;SDS011;5802;52.832;4.758;2023-08-17T09:31:56;2.40;;;0.80;;
11490;SDS011;5802;52.832;4.758;2023-08-17T09:34:23;1.35;;;1.00;;
11490;SDS011;5802;52.832;4.758;2023-08-17T09:36:50;1.42;;;0.65;;
11490;SDS011;5802;52.832;4.758;2023-08-17T09:39:18;1.25;;;0.80;;
11490;SDS011;5802;52.832;4.758;2023-08-17T09:41:44;1.23;;;1.00;;
11490;SDS011;5802;52.832;4.758;2023-08-17T09:44:13;1.15;;;0.80;;
11490;SDS011;5802;52.832;4.758;2023-08-17T09:46:42;1.10;;;0.90;;
11490;SDS011;5802;52.832;4.758;2023-08-17T09:49:09;1.50;;;0.80;;
11490;SDS011;5802;52.832;4.758;2023-08-17T09:51:36;2.25;;;1.10;;
11490;SDS011;5802;52.832;4.758;2023-08-17T09:54:03;2.42;;;0.82;;
11490;SDS011;5802;52.832;4.758;2023-08-17T09:56:31;3.25;;;1.00;;
11490;SDS011;5802;52.832;4.758;2023-08-17T09:58:58;1.00;;;0.70;;
11490;SDS011;5802;52.832;4.758;2023-08-17T10:01:25;1.23;;;0.77;;
11490;SDS011;5802;52.832;4.758;2023-08-17T10:03:54;2.90;;;1.00;;
11490;SDS011;5802;52.832;4.758;2023-08-17T10:06:22;2.35;;;0.70;;
11490;SDS011;5802;52.832;4.758;2023-08-17T10:08:52;1.23;;;0.77;;
11490;SDS011;5802;52.832;4.758;2023-08-17T10:11:21;1.45;;;0.98;;
11490;SDS011;5802;52.832;4.758;2023-08-17T10:13:52;2.38;;;0.90;;
11490;SDS011;5802;52.832;4.758;2023-08-17T10:16:23;1.48;;;0.90;;
11490;SDS011;5802;52.832;4.758;2023-08-17T10:18:53;3.03;;;0.80;;
11490;SDS011;5802;52.832;4.758;2023-08-17T10:21:23;2.30;;;1.02;;
11490;SDS011;5802;52.832;4.758;2023-08-17T10:23:54;2.05;;;0.93;;
11490;SDS011;5802;52.832;4.758;2023-08-17T10:26:21;1.88;;;0.90;;
11490;SDS011;5802;52.832;4.758;2023-08-17T10:28:48;3.40;;;1.23;;
11490;SDS011;5802;52.832;4.758;2023-08-17T10:31:17;1.63;;;0.95;;
11490;SDS011;5802;52.832;4.758;2023-08-17T10:33:45;2.15;;;0.95;;
11490;SDS011;5802;52.832;4.758;2023-08-17T10:36:13;3.00;;;0.90;;
11490;SDS011;5802;52.832;4.758;2023-08-17T10:38:40;2.53;;;0.90;;
11490;SDS011;5802;52.832;4.758;2023-08-17T10:41:08;1.10;;;0.75;;
11490;SDS011;5802;52.832;4.758;2023-08-17T10:43:43;4.18;;;0.93;;
11490;SDS011;5802;52.832;4.758;2023-08-17T10:46:21;0.95;;;0.80;;
11490;SDS011;5802;52.832;4.758;2023-08-17T10:48:47;2.58;;;1.00;;
11490;SDS011;5802;52.832;4.758;2023-08-17T10:51:14;1.75;;;0.90;;
11490;SDS011;5802;52.832;4.758;2023-08-17T10:53:42;1.27;;;1.00;;
11490;SDS011;5802;52.832;4.758;2023-08-17T10:56:11;1.83;;;0.85;;
11490;SDS011;5802;52.832;4.758;2023-08-17T10:58:38;1.33;;;0.90;;
11490;SDS011;5802;52.832;4.758;2023-08-17T11:01:06;2.03;;;0.90;;
11490;SDS011;5802;52.832;4.758;2023-08-17T11:03:34;2.85;;;1.05;;
11490;SDS011;5802;52.832;4.758;2023-08-17T11:06:13;2.60;;;1.13;;
11490;SDS011;5802;52.832;4.758;2023-08-17T11:08:51;2.15;;;0.88;;
11490;SDS011;5802;52.832;4.758;2023-08-17T11:11:19;1.80;;;1.00;;
11490;SDS011;5802;52.832;4.758;2023-08-17T11:13:47;2.72;;;0.98;;
11490;SDS011;5802;52.832;4.758;2023-08-17T11:16:15;2.78;;;0.88;;
11490;SDS011;5802;52.832;4.758;2023-08-17T11:18:45;2.42;;;0.90;;
11490;SDS011;5802;52.832;4.758;2023-08-17T11:21:12;2.13;;;1.00;;
11490;SDS011;5802;52.832;4.758;2023-08-17T11:23:40;2.17;;;1.13;;
11490;SDS011;5802;52.832;4.758;2023-08-17T11:26:07;3.00;;;1.08;;
11490;SDS011;5802;52.832;4.758;2023-08-17T11:28:34;2.28;;;1.10;;
11490;SDS011;5802;52.832;4.758;2023-08-17T11:31:03;1.42;;;0.90;;
11490;SDS011;5802;52.832;4.758;2023-08-17T11:33:31;3.50;;;1.20;;
11490;SDS011;5802;52.832;4.758;2023-08-17T11:36:00;1.60;;;0.80;;
11490;SDS011;5802;52.832;4.758;2023-08-17T11:38:29;2.22;;;0.98;;
11490;SDS011;5802;52.832;4.758;2023-08-17T11:40:57;1.48;;;1.08;;
11490;SDS011;5802;52.832;4.758;2023-08-17T11:43:24;2.63;;;1.00;;
11490;SDS011;5802;52.832;4.758;2023-08-17T11:45:51;1.40;;;1.00;;
11490;SDS011;5802;52.832;4.758;2023-08-17T11:48:18;2.65;;;1.00;;
11490;SDS011;5802;52.832;4.758;2023-08-17T11:50:45;1.23;;;0.80;;
11490;SDS011;5802;52.832;4.758;2023-08-17T11:53:13;1.52;;;1.20;;
11490;SDS011;5802;52.832;4.758;2023-08-17T11:55:40;1.15;;;1.00;;
11490;SDS011;5802;52.832;4.758;2023-08-17T11:58:07;2.17;;;0.95;;
11490;SDS011;5802;52.832;4.758;2023-08-17T12:00:34;1.52;;;0.90;;
11490;SDS011;5802;52.832;4.758;2023-08-17T12:03:02;3.38;;;1.10;;
11490;SDS011;5802;52.832;4.758;2023-08-17T12:05:30;2.17;;;1.10;;
11490;SDS011;5802;52.832;4.758;2023-08-17T12:07:58;1.95;;;0.90;;
11490;SDS011;5802;52.832;4.758;2023-08-17T12:10:28;1.35;;;0.90;;
11490;SDS011;5802;52.832;4.758;2023-08-17T12:12:57;3.33;;;0.90;;
11490;SDS011;5802;52.832;4.758;2023-08-17T12:15:24;3.15;;;1.30;;
11490;SDS011;5802;52.832;4.758;2023-08-17T12:17:51;3.08;;;1.02;;
11490;SDS011;5802;52.832;4.758;2023-08-17T12:20:18;3.85;;;1.17;;
11490;SDS011;5802;52.832;4.758;2023-08-17T12:22:46;3.42;;;1.30;;
11490;SDS011;5802;52.832;4.758;2023-08-17T12:25:13;4.53;;;1.30;;
11490;SDS011;5802;52.832;4.758;2023-08-17T12:27:42;3.60;;;1.38;;
11490;SDS011;5802;52.832;4.758;2023-08-17T12:30:12;1.90;;;1.05;;
11490;SDS011;5802;52.832;4.758;2023-08-17T12:32:40;2.08;;;1.00;;
11490;SDS011;5802;52.832;4.758;2023-08-17T12:35:07;1.85;;;1.10;;
11490;SDS011;5802;52.832;4.758;2023-08-17T12:37:34;3.50;;;1.13;;
11490;SDS011;5802;52.832;4.758;2023-08-17T12:40:00;5.65;;;1.27;;
11490;SDS011;5802;52.832;4.758;2023-08-17T12:42:28;3.28;;;1.17;;
11490;SDS011;5802;52.832;4.758;2023-08-17T12:44:56;2.50;;;1.30;;
11490;SDS011;5802;52.832;4.758;2023-08-17T12:47:23;5.38;;;1.30;;
11490;SDS011;5802;52.832;4.758;2023-08-17T12:49:50;4.13;;;1.13;;
11490;SDS011;5802;52.832;4.758;2023-08-17T12:52:16;2.35;;;1.35;;
11490;SDS011;5802;52.832;4.758;2023-08-17T12:54:43;2.45;;;0.82;;
11490;SDS011;5802;52.832;4.758;2023-08-17T12:57:10;2.45;;;1.02;;
11490;SDS011;5802;52.832;4.758;2023-08-17T12:59:36;5.82;;;1.20;;
11490;SDS011;5802;52.832;4.758;2023-08-17T13:02:05;3.42;;;1.10;;
11490;SDS011;5802;52.832;4.758;2023-08-17T13:04:31;3.13;;;1.30;;
11490;SDS011;5802;52.832;4.758;2023-08-17T13:06:58;2.78;;;1.25;;
11490;SDS011;5802;52.832;4.758;2023-08-17T13:09:25;1.55;;;1.10;;
11490;SDS011;5802;52.832;4.758;2023-08-17T13:11:51;4.13;;;1.27;;
11490;SDS011;5802;52.832;4.758;2023-08-17T13:14:18;1.98;;;1.15;;
11490;SDS011;5802;52.832;4.758;2023-08-17T13:16:45;3.70;;;1.25;;
11490;SDS011;5802;52.832;4.758;2023-08-17T13:19:13;4.10;;;1.45;;
11490;SDS011;5802;52.832;4.758;2023-08-17T13:21:39;3.78;;;1.30;;
11490;SDS011;5802;52.832;4.758;2023-08-17T13:24:06;2.83;;;1.23;;
11490;SDS011;5802;52.832;4.758;2023-08-17T13:26:33;3.30;;;1.30;;
11490;SDS011;5802;52.832;4.758;2023-08-17T13:29:01;2.22;;;1.20;;
11490;SDS011;5802;52.832;4.758;2023-08-17T13:31:28;5.80;;;1.45;;
11490;SDS011;5802;52.832;4.758;2023-08-17T13:33:55;2.70;;;1.35;;
11490;SDS011;5802;52.832;4.758;2023-08-17T13:36:23;3.47;;;1.30;;
11490;SDS011;5802;52.832;4.758;2023-08-17T13:38:50;4.38;;;1.48;;
11490;SDS011;5802;52.832;4.758;2023-08-17T13:41:16;2.17;;;1.10;;
11490;SDS011;5802;52.832;4.758;2023-08-17T13:43:43;3.47;;;1.40;;
11490;SDS011;5802;52.832;4.758;2023-08-17T13:46:10;2.95;;;1.40;;
11490;SDS011;5802;52.832;4.758;2023-08-17T13:48:37;4.53;;;1.40;;
11490;SDS011;5802;52.832;4.758;2023-08-17T13:51:05;4.85;;;1.40;;
11490;SDS011;5802;52.832;4.758;2023-08-17T13:53:33;2.17;;;1.30;;
11490;SDS011;5802;52.832;4.758;2023-08-17T13:56:00;1.60;;;1.20;;
11490;SDS011;5802;52.832;4.758;2023-08-17T13:58:26;3.50;;;1.33;;
11490;SDS011;5802;52.832;4.758;2023-08-17T14:00:53;4.13;;;1.63;;
11490;SDS011;5802;52.832;4.758;2023-08-17T14:03:20;5.45;;;1.55;;
11490;SDS011;5802;52.832;4.758;2023-08-17T14:05:46;5.45;;;1.50;;
11490;SDS011;5802;52.832;4.758;2023-08-17T14:08:13;2.85;;;1.25;;
11490;SDS011;5802;52.832;4.758;2023-08-17T14:10:41;4.18;;;1.45;;
11490;SDS011;5802;52.832;4.758;2023-08-17T14:13:08;2.38;;;1.40;;
11490;SDS011;5802;52.832;4.758;2023-08-17T14:15:34;1.92;;;1.38;;
11490;SDS011;5802;52.832;4.758;2023-08-17T14:18:01;3.72;;;1.50;;
11490;SDS011;5802;52.832;4.758;2023-08-17T14:20:28;4.50;;;1.50;;
11490;SDS011;5802;52.832;4.758;2023-08-17T14:22:55;5.38;;;1.27;;
11490;SDS011;5802;52.832;4.758;2023-08-17T14:25:22;3.47;;;1.42;;
11490;SDS011;5802;52.832;4.758;2023-08-17T14:27:50;2.90;;;1.40;;
11490;SDS011;5802;52.832;4.758;2023-08-17T14:30:16;3.03;;;1.30;;
11490;SDS011;5802;52.832;4.758;2023-08-17T14:32:43;4.03;;;1.33;;
11490;SDS011;5802;52.832;4.758;2023-08-17T14:35:10;3.30;;;1.40;;
11490;SDS011;5802;52.832;4.758;2023-08-17T14:37:36;5.70;;;1.60;;
11490;SDS011;5802;52.832;4.758;2023-08-17T14:40:03;7.78;;;1.70;;
11490;SDS011;5802;52.832;4.758;2023-08-17T14:42:31;3.90;;;1.33;;
11490;SDS011;5802;52.832;4.758;2023-08-17T14:44:59;5.88;;;1.60;;
11490;SDS011;5802;52.832;4.758;2023-08-17T14:47:25;3.30;;;1.42;;
11490;SDS011;5802;52.832;4.758;2023-08-17T14:49:52;2.90;;;1.42;;
11490;SDS011;5802;52.832;4.758;2023-08-17T14:52:20;2.65;;;1.70;;
11490;SDS011;5802;52.832;4.758;2023-08-17T14:54:47;5.43;;;1.40;;
11490;SDS011;5802;52.832;4.758;2023-08-17T14:57:14;2.42;;;1.58;;
11490;SDS011;5802;52.832;4.758;2023-08-17T14:59:40;5.40;;;1.90;;
11490;SDS011;5802;52.832;4.758;2023-08-17T15:02:08;2.70;;;1.38;;